Time;durP1;ratioP1;P1;durP2;ratioP2;P2;SDS_P1;SDS_P2;PMS_P1;PMS_P2;Temp;Humidity;BMP_temperature;BMP_pressure;BME280_temperature;BME280_humidity;BME280_pressure;Samples;Min_cycle;Max_cycle;Signal;HPM_P1;HPM_P2
2022/10/15 00:01:41;;;;;;;8.93;3.75;;;9.80;99.90;;;;;;4983369;28;20483;-59
2022/10/15 00:04:06;;;;;;;7.90;3.67;;;9.80;99.90;;;;;;4981841;28;20484;-59
2022/10/15 00:06:32;;;;;;;7.13;4.28;;;10.00;99.90;;;;;;4989946;28;20524;-60
2022/10/15 00:08:57;;;;;;;6.18;3.33;;;9.80;99.90;;;;;;4981892;28;20029;-59
2022/10/15 00:11:25;;;;;;;6.22;2.78;;;9.70;99.90;;;;;;4988835;28;20034;-59
2022/10/15 00:13:59;;;;;;;4.70;2.53;;;9.50;99.90;;;;;;4978244;28;20027;-57
2022/10/15 00:16:26;;;;;;;6.75;2.63;;;9.40;99.90;;;;;;4968296;28;20038;-57
2022/10/15 00:18:56;;;;;;;6.18;2.30;;;9.30;99.90;;;;;;4978322;28;20169;-59
2022/10/15 00:21:21;;;;;;;5.18;2.83;;;9.20;99.90;;;;;;4980100;28;20399;-57
2022/10/15 00:23:48;;;;;;;5.28;2.50;;;9.10;99.90;;;;;;4981984;28;20042;-60
2022/10/15 00:26:25;;;;;;;5.93;3.10;;;9.00;99.90;;;;;;4989502;28;20193;-58
2022/10/15 00:28:52;;;;;;;8.75;2.80;;;9.10;99.90;;;;;;4970515;28;20031;-58
2022/10/15 00:31:19;;;;;;;5.35;2.83;;;9.10;99.90;;;;;;4986492;28;20085;-58
2022/10/15 00:33:47;;;;;;;3.83;2.88;;;8.90;99.90;;;;;;4983712;28;20402;-58
2022/10/15 00:36:24;;;;;;;6.07;2.97;;;9.00;99.90;;;;;;4988193;28;20038;-58
2022/10/15 00:38:50;;;;;;;6.97;3.20;;;9.00;99.90;;;;;;4964924;28;20034;-58
2022/10/15 00:41:39;;;;;;;5.25;2.78;;;9.00;99.90;;;;;;4977516;28;20122;-58
2022/10/15 00:44:20;;;;;;;7.75;3.25;;;9.00;99.90;;;;;;4983665;28;20042;-60
2022/10/15 00:46:48;;;;;;;6.78;3.38;;;8.90;99.90;;;;;;4990723;28;20108;-58
2022/10/15 00:49:26;;;;;;;7.70;3.17;;;8.90;99.90;;;;;;4985638;28;20360;-59
2022/10/15 00:51:59;;;;;;;6.15;3.53;;;8.90;99.90;;;;;;4976326;28;20029;-58
2022/10/15 00:54:28;;;;;;;5.53;3.88;;;8.80;99.90;;;;;;4992299;28;20022;-58
2022/10/15 00:56:54;;;;;;;10.00;3.92;;;8.80;99.90;;;;;;4983800;28;22602;-58
2022/10/15 00:59:23;;;;;;;6.65;2.85;;;8.70;99.90;;;;;;4968310;28;20557;-59
2022/10/15 01:01:48;;;;;;;5.72;3.00;;;8.70;99.90;;;;;;4986994;28;20036;-58
2022/10/15 01:04:16;;;;;;;4.30;2.58;;;8.60;99.90;;;;;;4992151;28;20052;-58
2022/10/15 01:06:42;;;;;;;6.00;2.70;;;8.50;99.90;;;;;;4982270;28;20070;-59
2022/10/15 01:09:08;;;;;;;7.82;3.13;;;8.50;99.90;;;;;;4980054;28;20061;-57
2022/10/15 01:11:49;;;;;;;4.40;2.63;;;8.50;99.90;;;;;;4988312;28;20061;-59
2022/10/15 01:14:54;;;;;;;4.32;2.47;;;8.40;99.90;;;;;;4985953;28;20057;-59
2022/10/15 01:17:55;;;;;;;5.65;2.75;;;8.40;99.90;;;;;;4978086;28;20130;-59
2022/10/15 01:20:33;;;;;;;4.97;2.22;;;8.30;99.90;;;;;;4978286;28;20030;-59
2022/10/15 01:23:40;;;;;;;6.40;2.70;;;8.30;99.90;;;;;;4989218;28;20033;-59
2022/10/15 01:26:25;;;;;;;6.80;3.17;;;8.20;99.90;;;;;;4930167;29;20508;-59
2022/10/15 01:29:09;;;;;;;5.65;2.95;;;8.20;99.90;;;;;;4923451;29;20047;-59
2022/10/15 01:32:11;;;;;;;5.25;3.15;;;8.20;99.90;;;;;;4927611;29;20039;-59
2022/10/15 01:34:56;;;;;;;4.95;2.90;;;8.30;99.90;;;;;;4929538;29;20049;-59
2022/10/15 01:37:50;;;;;;;5.35;2.90;;;8.30;99.90;;;;;;4924849;29;20052;-59
2022/10/15 01:40:53;;;;;;;5.50;2.65;;;8.30;99.90;;;;;;4921849;29;20127;-59
2022/10/15 01:43:41;;;;;;;3.97;2.22;;;8.50;99.90;;;;;;4925485;29;20061;-59
2022/10/15 01:46:13;;;;;;;3.50;2.42;;;8.50;99.90;;;;;;4924774;29;20040;-59
2022/10/15 01:48:40;;;;;;;6.13;1.98;;;8.40;99.90;;;;;;4923423;29;20032;-59
2022/10/15 01:51:09;;;;;;;3.25;2.38;;;8.30;99.90;;;;;;4922387;29;20107;-58
2022/10/15 01:53:36;;;;;;;2.88;1.95;;;8.20;99.90;;;;;;4918152;29;20139;-59
2022/10/15 01:56:08;;;;;;;4.25;1.90;;;8.00;99.90;;;;;;4931056;29;20047;-58
2022/10/15 01:58:39;;;;;;;3.00;1.88;;;8.00;99.90;;;;;;4911047;29;21762;-58
2022/10/15 02:01:05;;;;;;;2.58;1.98;;;7.90;99.90;;;;;;4911933;29;20127;-58
2022/10/15 02:03:31;;;;;;;3.33;2.10;;;7.80;99.90;;;;;;4974925;28;20042;-58
2022/10/15 02:06:06;;;;;;;4.05;2.03;;;7.90;99.90;;;;;;4981240;28;20515;-58
2022/10/15 02:09:07;;;;;;;4.72;2.13;;;8.00;99.90;;;;;;4986921;28;20040;-58
2022/10/15 02:11:50;;;;;;;4.95;2.90;;;8.10;99.90;;;;;;4978174;28;20030;-58
2022/10/15 02:14:23;;;;;;;4.72;2.30;;;8.10;99.90;;;;;;4955298;28;20089;-59
2022/10/15 02:17:00;;;;;;;4.00;2.72;;;8.10;99.90;;;;;;4965928;28;20042;-59
2022/10/15 02:19:47;;;;;;;4.95;2.67;;;8.20;99.90;;;;;;4970366;28;20395;-59
2022/10/15 02:22:18;;;;;;;4.05;2.50;;;8.10;99.90;;;;;;4972034;28;20057;-58
2022/10/15 02:24:53;;;;;;;3.88;2.38;;;8.10;99.90;;;;;;4967498;28;20399;-58
2022/10/15 02:27:19;;;;;;;8.00;2.35;;;8.20;99.90;;;;;;4978271;28;20037;-58
2022/10/15 02:29:48;;;;;;;4.07;2.17;;;8.10;99.90;;;;;;4964535;28;20031;-58
2022/10/15 02:32:18;;;;;;;5.07;2.40;;;8.10;99.90;;;;;;4973395;28;20027;-58
2022/10/15 02:34:44;;;;;;;3.67;2.38;;;8.10;99.90;;;;;;4975430;28;20073;-58
2022/10/15 02:37:11;;;;;;;5.15;2.83;;;8.10;99.90;;;;;;4970550;28;20117;-58
2022/10/15 02:39:36;;;;;;;8.88;2.70;;;8.20;99.90;;;;;;4980272;28;20158;-58
2022/10/15 02:42:02;;;;;;;7.45;3.35;;;8.20;99.90;;;;;;4983246;28;20120;-58
2022/10/15 02:44:28;;;;;;;5.47;2.70;;;8.10;99.90;;;;;;4969842;28;20212;-58
2022/10/15 02:46:56;;;;;;;5.65;2.78;;;8.00;99.90;;;;;;4970087;28;20524;-58
2022/10/15 02:49:21;;;;;;;6.22;2.30;;;8.00;99.90;;;;;;4970387;28;20037;-58
2022/10/15 02:51:47;;;;;;;10.95;2.65;;;8.00;99.90;;;;;;4975359;28;20035;-58
2022/10/15 02:54:13;;;;;;;7.72;3.17;;;8.00;99.90;;;;;;4971750;28;20034;-58
2022/10/15 02:56:38;;;;;;;5.30;2.65;;;8.00;99.90;;;;;;4974130;28;20124;-59
2022/10/15 02:59:05;;;;;;;6.97;2.40;;;8.10;99.90;;;;;;4984093;28;20027;-58
2022/10/15 03:01:31;;;;;;;10.60;3.33;;;8.20;99.90;;;;;;4977491;28;20041;-59
2022/10/15 03:03:56;;;;;;;6.47;2.88;;;8.20;99.90;;;;;;4971263;28;20065;-58
2022/10/15 03:06:22;;;;;;;9.85;2.95;;;8.10;99.90;;;;;;4970718;28;20066;-58
2022/10/15 03:08:48;;;;;;;6.10;2.63;;;8.20;99.90;;;;;;4976928;28;20090;-59
2022/10/15 03:11:14;;;;;;;6.55;2.40;;;8.10;99.90;;;;;;4971400;28;20045;-58
2022/10/15 03:13:40;;;;;;;5.65;2.45;;;8.10;99.90;;;;;;4974229;28;20069;-58
2022/10/15 03:16:08;;;;;;;5.25;2.45;;;8.20;99.90;;;;;;4970725;28;20070;-58
2022/10/15 03:18:34;;;;;;;5.20;2.30;;;8.20;99.90;;;;;;4969234;28;20462;-59
2022/10/15 03:21:01;;;;;;;6.90;3.08;;;8.30;99.90;;;;;;4985667;28;20110;-58
2022/10/15 03:23:27;;;;;;;6.97;3.05;;;8.40;99.90;;;;;;4975432;28;20030;-59
2022/10/15 03:25:53;;;;;;;5.13;3.17;;;8.50;99.90;;;;;;4968159;28;20030;-59
2022/10/15 03:28:19;;;;;;;10.38;2.97;;;8.50;99.90;;;;;;4972136;28;20043;-59
2022/10/15 03:30:45;;;;;;;4.47;2.35;;;8.50;99.90;;;;;;4971475;28;20363;-60
2022/10/15 03:33:11;;;;;;;5.20;2.80;;;8.60;99.90;;;;;;4972529;28;20553;-59
2022/10/15 03:35:37;;;;;;;6.10;2.90;;;8.80;99.90;;;;;;4972469;28;20035;-59
2022/10/15 03:38:03;;;;;;;8.35;2.80;;;8.70;99.90;;;;;;4974078;28;20043;-59
2022/10/15 03:40:29;;;;;;;5.20;2.60;;;8.70;99.90;;;;;;4971339;28;20043;-60
2022/10/15 03:42:55;;;;;;;4.32;2.13;;;8.70;99.90;;;;;;4974531;28;20509;-59
2022/10/15 03:45:22;;;;;;;7.18;2.38;;;8.70;99.90;;;;;;4964133;28;20049;-59
2022/10/15 03:47:48;;;;;;;4.00;2.55;;;8.80;99.90;;;;;;4974438;28;20033;-59
2022/10/15 03:50:14;;;;;;;6.82;2.40;;;8.80;99.90;;;;;;4969326;28;20031;-60
2022/10/15 03:52:39;;;;;;;5.25;2.40;;;8.80;99.90;;;;;;4969972;28;20038;-60
2022/10/15 03:55:06;;;;;;;5.72;2.08;;;8.90;99.90;;;;;;4974098;28;20386;-60
2022/10/15 03:57:32;;;;;;;3.53;1.77;;;8.90;99.90;;;;;;4971504;28;20049;-59
2022/10/15 03:59:58;;;;;;;6.38;2.20;;;9.00;99.90;;;;;;4970736;28;20094;-59
2022/10/15 04:02:24;;;;;;;6.75;2.40;;;9.10;99.90;;;;;;4973028;28;20042;-59
2022/10/15 04:04:54;;;;;;;6.15;2.25;;;9.10;99.90;;;;;;4973730;28;20034;-59
2022/10/15 04:07:20;;;;;;;3.90;1.90;;;9.10;99.90;;;;;;4970302;28;20450;-59
2022/10/15 04:09:46;;;;;;;7.75;2.33;;;9.10;99.90;;;;;;4971688;28;20054;-58
2022/10/15 04:12:12;;;;;;;4.13;2.10;;;9.10;99.90;;;;;;4981881;28;20057;-60
2022/10/15 04:14:38;;;;;;;4.25;2.25;;;9.10;99.90;;;;;;4980469;28;20034;-58
2022/10/15 04:17:04;;;;;;;5.38;2.55;;;9.30;99.90;;;;;;4972507;28;20304;-59
2022/10/15 04:19:29;;;;;;;6.07;2.75;;;9.30;99.90;;;;;;4970867;28;20035;-58
2022/10/15 04:21:55;;;;;;;4.93;2.17;;;9.40;99.90;;;;;;4970686;28;20075;-58
2022/10/15 04:24:21;;;;;;;6.18;1.95;;;9.40;99.90;;;;;;4972001;28;20458;-58
2022/10/15 04:26:47;;;;;;;4.90;2.22;;;9.50;99.90;;;;;;4970767;28;20100;-59
2022/10/15 04:29:13;;;;;;;6.03;1.88;;;9.40;99.90;;;;;;4975994;28;20038;-59
2022/10/15 04:31:38;;;;;;;3.55;1.85;;;9.40;99.90;;;;;;4971922;28;20034;-58
2022/10/15 04:34:05;;;;;;;4.80;2.47;;;9.40;99.90;;;;;;4977058;28;20034;-58
2022/10/15 04:36:30;;;;;;;4.95;2.10;;;9.60;99.90;;;;;;4971820;28;20064;-58
2022/10/15 04:38:56;;;;;;;4.38;2.47;;;9.70;99.90;;;;;;4975230;28;20081;-58
2022/10/15 04:41:22;;;;;;;4.57;1.83;;;9.60;99.90;;;;;;4972736;28;20031;-58
2022/10/15 04:43:47;;;;;;;4.18;2.30;;;9.60;99.90;;;;;;4966083;28;20380;-58
2022/10/15 04:46:13;;;;;;;4.82;1.95;;;9.50;99.90;;;;;;4972913;28;20026;-58
2022/10/15 04:48:39;;;;;;;4.20;1.52;;;9.60;99.90;;;;;;4976430;28;20034;-58
2022/10/15 04:51:06;;;;;;;4.05;2.05;;;9.50;99.90;;;;;;4972575;28;20018;-58
2022/10/15 04:53:33;;;;;;;3.17;2.08;;;9.50;99.90;;;;;;4975131;28;20399;-58
2022/10/15 04:56:14;;;;;;;3.95;2.40;;;9.50;99.90;;;;;;4972659;28;20019;-58
2022/10/15 04:58:40;;;;;;;4.53;1.92;;;9.50;99.90;;;;;;4975179;28;20019;-58
2022/10/15 05:01:11;;;;;;;6.15;1.80;;;9.70;99.90;;;;;;4975405;28;20027;-58
2022/10/15 05:03:37;;;;;;;3.67;1.77;;;9.70;99.90;;;;;;4978459;28;20105;-59
2022/10/15 05:06:09;;;;;;;4.90;1.95;;;9.70;99.90;;;;;;4988138;28;20034;-59
2022/10/15 05:08:35;;;;;;;4.38;2.22;;;9.70;99.90;;;;;;4969425;28;20490;-60
2022/10/15 05:11:06;;;;;;;3.35;1.92;;;9.70;99.90;;;;;;4975178;28;20105;-59
2022/10/15 05:13:33;;;;;;;5.07;1.90;;;9.70;99.90;;;;;;4972956;28;20027;-59
2022/10/15 05:16:14;;;;;;;4.53;2.63;;;9.80;99.90;;;;;;4966269;28;20045;-59
2022/10/15 05:18:41;;;;;;;4.47;2.03;;;9.80;99.90;;;;;;4975975;28;20039;-59
2022/10/15 05:21:07;;;;;;;4.80;2.00;;;9.90;99.90;;;;;;4972547;28;20114;-60
2022/10/15 05:23:33;;;;;;;5.45;2.53;;;10.10;99.90;;;;;;4978356;28;20035;-60
2022/10/15 05:26:05;;;;;;;4.15;1.98;;;10.00;99.90;;;;;;4972454;28;20379;-59
2022/10/15 05:28:31;;;;;;;6.25;2.38;;;10.10;99.90;;;;;;4969464;28;20041;-59
2022/10/15 05:31:09;;;;;;;3.03;2.25;;;10.10;99.90;;;;;;4965841;28;20029;-59
2022/10/15 05:33:35;;;;;;;6.00;2.55;;;10.20;99.90;;;;;;4979316;28;20665;-59
2022/10/15 05:36:16;;;;;;;4.43;1.75;;;10.30;99.90;;;;;;4974098;28;20082;-59
2022/10/15 05:38:44;;;;;;;3.33;1.90;;;10.30;99.90;;;;;;4958561;28;20053;-60
2022/10/15 05:41:09;;;;;;;5.40;2.25;;;10.40;99.90;;;;;;4977331;28;20026;-59
2022/10/15 05:43:35;;;;;;;2.67;1.60;;;10.30;99.90;;;;;;4975453;28;20067;-57
2022/10/15 05:46:01;;;;;;;5.80;2.38;;;10.40;99.90;;;;;;4972980;28;20031;-60
2022/10/15 05:48:27;;;;;;;5.28;2.83;;;10.40;99.90;;;;;;4977672;28;20034;-60
2022/10/15 05:50:52;;;;;;;5.13;3.10;;;10.40;99.90;;;;;;4973916;28;20062;-60
2022/10/15 05:53:18;;;;;;;5.22;2.65;;;10.50;99.90;;;;;;4977285;28;20089;-58
2022/10/15 05:55:44;;;;;;;8.52;2.88;;;10.50;99.90;;;;;;4980164;28;20031;-58
2022/10/15 05:58:11;;;;;;;5.70;2.05;;;10.60;99.90;;;;;;4967470;28;20571;-59
2022/10/15 06:00:38;;;;;;;1.67;1.10;;;10.80;99.90;;;;;;4969225;28;20466;-59
2022/10/15 06:03:04;;;;;;;1.00;0.82;;;11.20;99.90;;;;;;4974128;28;20025;-58
2022/10/15 06:05:30;;;;;;;2.20;1.20;;;11.80;99.90;;;;;;4974112;28;20019;-58
2022/10/15 06:07:56;;;;;;;5.20;1.90;;;12.20;99.90;;;;;;4974230;28;20023;-60
2022/10/15 06:10:22;;;;;;;1.90;1.13;;;12.50;99.90;;;;;;4977280;28;20073;-59
2022/10/15 06:12:50;;;;;;;1.63;1.30;;;12.60;99.90;;;;;;4984161;28;20058;-59
2022/10/15 06:15:16;;;;;;;1.75;0.77;;;12.70;99.90;;;;;;4976898;28;20043;-59
2022/10/15 06:17:42;;;;;;;1.55;0.93;;;12.80;99.90;;;;;;4978893;28;20112;-59
2022/10/15 06:20:08;;;;;;;1.60;0.82;;;12.90;99.90;;;;;;4975909;28;20550;-59
2022/10/15 06:22:34;;;;;;;3.17;0.90;;;12.90;99.90;;;;;;4980205;28;20034;-60
2022/10/15 06:24:59;;;;;;;2.08;1.60;;;12.80;99.90;;;;;;4969186;28;20041;-59
2022/10/15 06:27:26;;;;;;;2.97;1.50;;;12.80;99.90;;;;;;4978699;28;20034;-59
2022/10/15 06:29:51;;;;;;;4.57;1.70;;;12.70;99.90;;;;;;4977928;28;20061;-59
2022/10/15 06:32:17;;;;;;;3.17;1.40;;;12.60;99.90;;;;;;4982179;28;20490;-59
2022/10/15 06:34:43;;;;;;;4.40;1.35;;;12.40;99.90;;;;;;4976253;28;20054;-59
2022/10/15 06:37:09;;;;;;;3.38;1.30;;;12.40;99.90;;;;;;4982484;28;20487;-59
2022/10/15 06:39:35;;;;;;;3.33;1.88;;;12.40;99.90;;;;;;4979052;28;20030;-59
2022/10/15 06:42:00;;;;;;;4.22;1.73;;;12.30;99.90;;;;;;4978752;28;20037;-60
2022/10/15 06:44:26;;;;;;;5.40;2.00;;;12.40;99.90;;;;;;4967172;28;20074;-59
2022/10/15 06:46:52;;;;;;;4.13;1.88;;;12.30;99.90;;;;;;4979635;28;20088;-59
2022/10/15 06:49:17;;;;;;;2.72;1.65;;;12.30;99.90;;;;;;4979477;28;20093;-59
2022/10/15 06:51:43;;;;;;;9.93;2.78;;;12.50;99.90;;;;;;4977528;28;20491;-60
2022/10/15 06:54:08;;;;;;;5.18;1.77;;;12.40;99.90;;;;;;4971584;28;20043;-58
2022/10/15 06:56:35;;;;;;;3.55;1.85;;;12.30;99.90;;;;;;4964270;28;20449;-59
2022/10/15 06:59:00;;;;;;;3.33;1.50;;;12.40;99.90;;;;;;4969597;28;20043;-59
2022/10/15 07:01:26;;;;;;;5.25;1.33;;;12.50;99.90;;;;;;4970005;28;20038;-58
2022/10/15 07:03:51;;;;;;;3.15;0.93;;;12.40;99.90;;;;;;4970465;28;20117;-59
2022/10/15 07:06:17;;;;;;;6.65;1.40;;;12.40;99.90;;;;;;4977503;28;20035;-59
2022/10/15 07:08:44;;;;;;;5.57;1.25;;;12.40;99.90;;;;;;4967711;28;20034;-59
2022/10/15 07:11:10;;;;;;;4.15;1.38;;;12.40;99.90;;;;;;4972653;28;20027;-59
2022/10/15 07:13:36;;;;;;;5.03;1.15;;;12.40;99.90;;;;;;4968669;28;20033;-59
2022/10/15 07:16:07;;;;;;;3.53;1.23;;;12.40;99.90;;;;;;4973412;28;20038;-59
2022/10/15 07:18:34;;;;;;;4.35;0.90;;;12.30;99.90;;;;;;4970204;28;20038;-59
2022/10/15 07:21:00;;;;;;;5.82;1.00;;;12.40;99.90;;;;;;4973821;28;20029;-59
2022/10/15 07:23:26;;;;;;;1.48;0.98;;;12.40;99.90;;;;;;4979704;28;20032;-59
2022/10/15 07:25:51;;;;;;;4.13;1.23;;;12.50;99.90;;;;;;4957433;28;20090;-59
2022/10/15 07:28:17;;;;;;;7.43;1.30;;;12.50;99.90;;;;;;4971922;28;20122;-60
2022/10/15 07:30:43;;;;;;;2.28;0.88;;;12.50;99.90;;;;;;4968282;28;20031;-59
2022/10/15 07:33:08;;;;;;;2.95;1.48;;;12.50;99.90;;;;;;4969408;28;20065;-59
2022/10/15 07:35:36;;;;;;;3.55;1.30;;;12.50;99.90;;;;;;4976893;28;20060;-59
2022/10/15 07:38:02;;;;;;;2.25;1.17;;;12.50;99.90;;;;;;4973920;28;20045;-59
2022/10/15 07:40:28;;;;;;;5.13;1.63;;;12.50;99.90;;;;;;4969082;28;20039;-60
2022/10/15 07:42:56;;;;;;;1.80;1.10;;;12.70;99.90;;;;;;4979916;28;20054;-60
2022/10/15 07:45:22;;;;;;;2.05;1.00;;;12.80;99.90;;;;;;4976204;28;20030;-60
2022/10/15 07:47:48;;;;;;;2.85;1.75;;;12.80;99.90;;;;;;4972559;28;20031;-59
2022/10/15 07:50:13;;;;;;;5.18;1.60;;;12.70;99.90;;;;;;4976233;28;20114;-60
2022/10/15 07:52:39;;;;;;;7.50;1.20;;;12.70;99.90;;;;;;4971140;28;20035;-59
2022/10/15 07:55:05;;;;;;;3.22;0.55;;;12.70;99.90;;;;;;4975014;28;20027;-59
2022/10/15 07:57:30;;;;;;;1.92;0.90;;;12.80;99.90;;;;;;4977675;28;20111;-60
2022/10/15 07:59:56;;;;;;;1.77;1.13;;;12.80;99.90;;;;;;4976931;28;20034;-59
2022/10/15 08:02:22;;;;;;;2.25;0.77;;;12.80;99.90;;;;;;4965111;28;20125;-60
2022/10/15 08:04:47;;;;;;;2.35;1.10;;;12.80;99.90;;;;;;4976098;28;20106;-59
2022/10/15 08:07:13;;;;;;;6.72;1.05;;;12.80;99.90;;;;;;4967616;28;20122;-60
2022/10/15 08:09:39;;;;;;;7.00;0.80;;;12.80;99.90;;;;;;4974279;28;20031;-60
2022/10/15 08:12:05;;;;;;;2.10;0.82;;;12.80;99.90;;;;;;4981838;28;20030;-60
2022/10/15 08:14:32;;;;;;;3.72;1.23;;;12.80;99.90;;;;;;4981907;28;20451;-59
2022/10/15 08:16:58;;;;;;;1.23;1.13;;;12.90;99.90;;;;;;4966538;28;20117;-59
2022/10/15 08:19:24;;;;;;;5.72;1.20;;;12.90;99.90;;;;;;4970096;28;20460;-60
2022/10/15 08:21:49;;;;;;;1.05;0.70;;;12.90;99.90;;;;;;4973275;28;20483;-60
2022/10/15 08:24:15;;;;;;;2.47;0.60;;;13.00;99.90;;;;;;4980344;28;20096;-60
2022/10/15 08:26:41;;;;;;;1.25;0.50;;;13.00;99.90;;;;;;4976423;28;20447;-60
2022/10/15 08:29:06;;;;;;;8.32;0.50;;;13.20;99.90;;;;;;4975761;28;20023;-58
2022/10/15 08:31:32;;;;;;;4.70;0.50;;;13.30;99.90;;;;;;4984174;28;20038;-58
2022/10/15 08:34:01;;;;;;;1.50;1.15;;;13.40;99.90;;;;;;4973857;28;20069;-60
2022/10/15 08:36:27;;;;;;;1.55;0.50;;;13.50;99.90;;;;;;4970642;28;20033;-60
2022/10/15 08:38:53;;;;;;;2.47;0.85;;;13.50;99.90;;;;;;4972204;28;20438;-59
2022/10/15 08:41:43;;;;;;;2.72;0.82;;;13.50;99.90;;;;;;4970963;28;20085;-59
2022/10/15 08:44:20;;;;;;;2.15;0.35;;;13.60;99.90;;;;;;4968194;28;20443;-59
2022/10/15 08:46:49;;;;;;;2.67;0.50;;;13.60;99.90;;;;;;4972157;28;20035;-59
2022/10/15 08:49:42;;;;;;;1.05;0.30;;;13.70;99.90;;;;;;4972499;28;20117;-59
2022/10/15 08:52:24;;;;;;;0.47;0.45;;;13.80;99.90;;;;;;4981503;28;20092;-59
2022/10/15 08:54:51;;;;;;;6.13;0.47;;;14.00;99.90;;;;;;4961814;28;20030;-59
2022/10/15 08:57:44;;;;;;;3.30;0.30;;;14.00;99.90;;;;;;4976857;28;20038;-60
2022/10/15 09:00:13;;;;;;;2.63;0.30;;;14.10;99.90;;;;;;4968443;28;20144;-59
2022/10/15 09:02:56;;;;;;;1.00;0.30;;;14.00;99.90;;;;;;4969909;28;20030;-58
2022/10/15 09:05:31;;;;;;;1.55;0.20;;;14.00;99.90;;;;;;4973048;28;20026;-59
2022/10/15 09:08:00;;;;;;;1.20;0.30;;;14.20;99.90;;;;;;4969125;28;20035;-59
2022/10/15 09:10:46;;;;;;;3.17;0.70;;;14.30;99.90;;;;;;4970091;28;20054;-59
2022/10/15 09:13:22;;;;;;;2.05;0.25;;;14.40;99.90;;;;;;4976289;28;20121;-60
2022/10/15 09:16:09;;;;;;;4.32;0.50;;;14.50;99.90;;;;;;4974717;28;20521;-59
2022/10/15 09:18:40;;;;;;;0.80;0.25;;;14.60;99.90;;;;;;4969958;28;20043;-59
2022/10/15 09:21:08;;;;;;;6.20;0.47;;;14.70;99.90;;;;;;4971341;28;20550;-60
2022/10/15 09:23:34;;;;;;;9.77;1.25;;;14.80;99.90;;;;;;4976611;28;20034;-60
2022/10/15 09:26:25;;;;;;;5.57;0.45;;;15.00;99.90;;;;;;4971593;28;20026;-61
2022/10/15 09:28:58;;;;;;;1.83;0.40;;;15.00;99.90;;;;;;4969549;28;20520;-60
2022/10/15 09:31:29;;;;;;;1.98;0.28;;;15.10;99.90;;;;;;4970804;28;20030;-60
2022/10/15 09:34:04;;;;;;;1.43;0.30;;;15.20;99.90;;;;;;4968236;28;20450;-61
2022/10/15 09:36:35;;;;;;;2.30;0.25;;;15.30;99.90;;;;;;4971274;28;20289;-61
2022/10/15 09:39:19;;;;;;;2.85;0.30;;;15.40;99.90;;;;;;4968956;28;20398;-59
2022/10/15 09:42:03;;;;;;;1.65;0.32;;;15.40;99.90;;;;;;4966362;28;20037;-58
2022/10/15 09:44:36;;;;;;;1.85;0.50;;;15.50;99.90;;;;;;4971426;28;20399;-59
2022/10/15 09:47:21;;;;;;;5.47;0.52;;;15.60;99.90;;;;;;4963184;28;20117;-59
2022/10/15 09:49:46;;;;;;;3.15;0.73;;;15.60;99.90;;;;;;4969494;28;20065;-60
2022/10/15 09:52:30;;;;;;;3.30;0.52;;;15.60;99.90;;;;;;4963519;28;20125;-60
2022/10/15 09:55:32;;;;;;;0.82;0.20;;;15.70;99.90;;;;;;4979489;28;20027;-60
2022/10/15 09:58:03;;;;;;;2.08;0.40;;;15.90;99.90;;;;;;4991318;28;20038;-60
2022/10/15 10:01:01;;;;;;;3.05;0.32;;;15.90;99.90;;;;;;4981783;28;20075;-60
2022/10/15 10:03:29;;;;;;;4.45;0.95;;;15.90;99.90;;;;;;4985193;28;20030;-60
2022/10/15 10:06:09;;;;;;;4.10;0.40;;;15.90;99.90;;;;;;4972289;28;20478;-60
2022/10/15 10:08:48;;;;;;;2.05;0.43;;;15.90;99.90;;;;;;4965628;28;20030;-60
2022/10/15 10:11:14;;;;;;;1.45;0.20;;;15.90;99.90;;;;;;4968864;28;20023;-60
2022/10/15 10:13:47;;;;;;;2.10;0.28;;;15.80;99.90;;;;;;4968665;28;20031;-59
2022/10/15 10:16:14;;;;;;;2.53;0.47;;;15.90;99.90;;;;;;4972910;28;20023;-59
2022/10/15 10:18:41;;;;;;;3.30;0.50;;;15.90;99.90;;;;;;4970687;28;20043;-60
2022/10/15 10:21:29;;;;;;;1.92;0.30;;;16.00;99.90;;;;;;4969757;28;20030;-59
2022/10/15 10:23:59;;;;;;;2.03;0.30;;;16.00;99.90;;;;;;4971817;28;20030;-59
2022/10/15 10:26:25;;;;;;;2.33;0.57;;;16.20;99.90;;;;;;4970930;28;20459;-60
2022/10/15 10:28:54;;;;;;;5.70;0.73;;;16.30;99.90;;;;;;4975569;28;20034;-60
2022/10/15 10:31:32;;;;;;;5.00;0.40;;;16.40;99.90;;;;;;4979748;28;20026;-60
2022/10/15 10:34:02;;;;;;;2.55;0.50;;;16.50;99.90;;;;;;4971034;28;20034;-60
2022/10/15 10:36:33;;;;;;;2.17;0.32;;;16.50;99.90;;;;;;4969217;28;20035;-60
2022/10/15 10:39:13;;;;;;;2.53;0.40;;;16.50;99.90;;;;;;4962305;28;20035;-60
2022/10/15 10:42:04;;;;;;;0.55;0.25;;;16.50;99.90;;;;;;4966835;28;20399;-59
2022/10/15 10:44:36;;;;;;;3.40;0.70;;;16.40;99.90;;;;;;4968180;28;20050;-60
2022/10/15 10:47:09;;;;;;;1.95;0.50;;;16.60;99.90;;;;;;4967935;28;20041;-60
2022/10/15 10:49:38;;;;;;;3.30;0.35;;;16.80;99.90;;;;;;4967506;28;20031;-59
2022/10/15 10:52:05;;;;;;;1.95;0.40;;;16.90;99.90;;;;;;4971924;28;20141;-59
2022/10/15 10:54:32;;;;;;;2.88;0.28;;;16.80;99.90;;;;;;4966693;28;20046;-60
2022/10/15 10:56:59;;;;;;;2.08;0.57;;;16.80;99.90;;;;;;4970594;28;20129;-58
2022/10/15 10:59:35;;;;;;;1.30;0.10;;;17.00;99.90;;;;;;4968574;28;20550;-59
2022/10/15 11:02:03;;;;;;;0.68;0.20;;;17.20;99.90;;;;;;4971136;28;20019;-59
2022/10/15 11:04:34;;;;;;;2.40;0.40;;;17.40;99.90;;;;;;4970293;28;20031;-60
2022/10/15 11:07:07;;;;;;;4.38;0.50;;;17.90;99.90;;;;;;4969674;28;20483;-58
2022/10/15 11:09:39;;;;;;;2.60;0.35;;;18.10;99.90;;;;;;4969540;28;20089;-59
2022/10/15 11:12:17;;;;;;;2.85;0.22;;;17.90;99.90;;;;;;4966222;28;20046;-60
2022/10/15 11:15:16;;;;;;;2.97;0.40;;;18.10;99.90;;;;;;4963756;28;20035;-60
2022/10/15 11:18:19;;;;;;;3.65;0.40;;;18.20;99.90;;;;;;4970409;28;20049;-60
2022/10/15 11:21:13;;;;;;;3.20;0.60;;;19.30;99.90;;;;;;4970862;28;20031;-60
2022/10/15 11:23:57;;;;;;;3.47;0.40;;;19.50;99.90;;;;;;4968950;28;20114;-60
2022/10/15 11:26:49;;;;;;;3.50;0.40;;;19.00;99.90;;;;;;4982224;28;20034;-59
2022/10/15 11:29:37;;;;;;;2.50;0.50;;;18.40;99.90;;;;;;4953141;28;20030;-60
2022/10/15 11:32:18;;;;;;;4.95;0.30;;;18.00;99.90;;;;;;4980486;28;20026;-60
2022/10/15 11:35:21;;;;;;;6.22;0.65;;;18.80;99.90;;;;;;4969810;28;20040;-61
2022/10/15 11:38:22;;;;;;;1.95;0.55;;;19.80;99.90;;;;;;4966299;28;20050;-61
2022/10/15 11:41:12;;;;;;;2.15;0.50;;;20.40;99.90;;;;;;4974711;28;20038;-61
2022/10/15 11:43:37;;;;;;;3.10;0.50;;;20.90;99.90;;;;;;4968070;28;20518;-60
2022/10/15 11:46:12;;;;;;;3.17;0.80;;;21.10;99.90;;;;;;4972485;28;20035;-60
2022/10/15 11:48:46;;;;;;;3.72;0.80;;;20.40;99.90;;;;;;4974932;28;20030;-59
2022/10/15 11:51:37;;;;;;;3.38;0.47;;;20.00;99.90;;;;;;4977511;28;20368;-60
2022/10/15 11:54:15;;;;;;;3.15;0.50;;;20.10;99.90;;;;;;4973337;28;20040;-60
2022/10/15 11:56:45;;;;;;;2.72;0.43;;;20.50;99.90;;;;;;4973041;28;20134;-60
2022/10/15 11:59:29;;;;;;;2.05;0.30;;;19.80;99.90;;;;;;4981052;28;20038;-60
2022/10/15 12:08:29;;;;;;;0.60;0.20;;;15.80;99.90;;;;;;4972431;28;20038;-60
2022/10/15 12:11:22;;;;;;;0.75;0.10;;;14.60;99.90;;;;;;4965288;28;20639;-60
2022/10/15 12:14:01;;;;;;;0.60;0.20;;;14.30;99.90;;;;;;4975413;28;20033;-60
2022/10/15 12:16:47;;;;;;;1.17;0.32;;;14.20;99.90;;;;;;4981821;28;20034;-60
2022/10/15 12:19:20;;;;;;;1.88;0.20;;;14.40;99.90;;;;;;4972751;28;20510;-60
2022/10/15 12:21:55;;;;;;;1.42;0.30;;;14.60;99.90;;;;;;4985445;28;20495;-61
2022/10/15 12:24:52;;;;;;;0.82;0.43;;;14.80;99.90;;;;;;4980219;28;20093;-60
2022/10/15 12:27:17;;;;;;;1.98;0.75;;;15.10;99.90;;;;;;4972950;28;20045;-61
2022/10/15 12:30:10;;;;;;;2.38;0.40;;;15.20;99.90;;;;;;4989781;28;20039;-60
2022/10/15 12:32:41;;;;;;;0.47;0.20;;;15.20;99.90;;;;;;4982202;28;20030;-59
2022/10/15 12:35:20;;;;;;;0.38;0.20;;;15.30;99.90;;;;;;4972529;28;20059;-59
2022/10/15 12:37:48;;;;;;;0.98;0.22;;;15.30;99.90;;;;;;4963706;28;20046;-60
2022/10/15 12:40:20;;;;;;;1.55;0.50;;;15.30;99.90;;;;;;4973997;28;20537;-60
2022/10/15 12:42:53;;;;;;;1.67;0.20;;;15.30;99.90;;;;;;4973881;28;20501;-59
2022/10/15 12:45:25;;;;;;;4.88;0.65;;;15.40;99.90;;;;;;4972766;28;20177;-60
2022/10/15 12:47:55;;;;;;;;;;;15.60;99.90;;;;;;4974307;28;20089;-61
2022/10/15 12:50:26;;;;;;;1.38;0.10;;;15.50;99.90;;;;;;4975600;28;20008;-59
2022/10/15 12:53:33;;;;;;;2.58;0.40;;;15.60;99.90;;;;;;4975543;28;20026;-59
2022/10/15 12:56:23;;;;;;;0.55;0.20;;;15.70;99.90;;;;;;4966732;28;20041;-61
2022/10/15 12:58:53;;;;;;;1.63;0.50;;;16.10;99.90;;;;;;4980675;28;20030;-59
2022/10/15 13:01:19;;;;;;;0.20;0.13;;;16.40;99.90;;;;;;4984241;28;20037;-59
2022/10/15 13:03:48;;;;;;;2.40;0.50;;;16.40;99.90;;;;;;4989264;28;20026;-60
2022/10/15 13:06:24;;;;;;;1.02;0.40;;;16.50;99.90;;;;;;4978455;28;20031;-59
2022/10/15 13:09:10;;;;;;;2.35;0.70;;;16.40;99.90;;;;;;4971101;28;20031;-59
2022/10/15 13:11:51;;;;;;;1.20;0.40;;;16.40;99.90;;;;;;4973223;28;20043;-58
2022/10/15 13:14:38;;;;;;;2.08;0.57;;;16.30;99.90;;;;;;4977154;28;20034;-59
2022/10/15 13:17:13;;;;;;;4.65;0.50;;;16.10;99.90;;;;;;4967212;28;20046;-59
2022/10/15 13:19:46;;;;;;;2.92;0.80;;;16.20;99.90;;;;;;4979007;28;20382;-59
2022/10/15 13:22:32;;;;;;;3.03;0.55;;;16.20;99.90;;;;;;4982948;28;20023;-59